KNBC

Beaufort MCAS / Merritt Field / Airport

Beaufort, South Carolina, USA
METAR KNBC 182156Z 19009G16KT 10SM SCT040 31/24 A3005 RMK AO2 SLP176 T03110239
Observed Flight Rules
Jun-18 @ 21:56 UTC (52 minutes ago) Visual Flight Rules
Wind Visibility Clouds
190° at 9 knots
 Gusting to 16 knots
10 miles
  • Scattered at 4,000' AGL
Temperatures Readings
Current 31°C / 88°F
Dewpoint 24°C / 75°F
Humidity 66%
Altimeter 30.05" Hg
Pressure 1017.6 hPa
Elevation 12
METAR KNBC 182156Z 19009G16KT 10SM SCT040 31/24 A3005 RMK AO2 SLP176 T03110239
Observed Flight Rules
Jun-18 @ 21:56 UTC
(52 minutes ago)
VFR
Wind Visibility
190° at 9 knots
 Gusting to 16 knots
10 miles
Clouds
  • Scattered at 4,000' AGL
Temperature Dewpoint
31°C / 88°F 24°C / 75°F
Humidity Altimeter Pressure
66% 30.05" Hg 1017.6 hPa